Time;durP1;ratioP1;P1;durP2;ratioP2;P2;SDS_P1;SDS_P2;PMS_P1;PMS_P2;Temp;Humidity;BMP_temperature;BMP_pressure;BME280_temperature;BME280_humidity;BME280_pressure;Samples;Min_cycle;Max_cycle;Signal;HPM_P1;HPM_P2
2021/01/28 00:01:11;;;;;;;;;;;;;;;0.42;100.00;100034.06;5113297;28;19967;-70
2021/01/28 00:03:37;;;;;;;;;;;;;;;0.38;100.00;100026.31;5112958;28;20014;-70
2021/01/28 00:06:03;;;;;;;;;;;;;;;0.36;100.00;100030.84;5112884;28;19966;-70
2021/01/28 00:08:29;;;;;;;;;;;;;;;0.36;100.00;100025.50;5113085;28;19930;-70
2021/01/28 00:10:55;;;;;;;;;;;;;;;0.36;100.00;100028.16;5112889;28;19924;-71
2021/01/28 00:13:21;;;;;;;;;;;;;;;0.35;100.00;100027.31;5113007;28;19967;-70
2021/01/28 00:15:48;;;;;;;;;;;;;;;0.33;100.00;100019.38;5112689;28;19927;-70
2021/01/28 00:18:14;;;;;;;;;;;;;;;0.35;100.00;100010.41;5112769;28;19930;-70
2021/01/28 00:20:41;;;;;;;;;;;;;;;0.33;100.00;100014.06;5112805;28;20018;-70
2021/01/28 00:23:07;;;;;;;;;;;;;;;0.30;100.00;100013.31;5113159;28;19924;-70
2021/01/28 00:25:34;;;;;;;;;;;;;;;0.30;100.00;100010.66;5112579;28;19976;-70
2021/01/28 00:27:59;;;;;;;;;;;;;;;0.28;100.00;100009.84;5112908;28;19966;-70
2021/01/28 00:30:26;;;;;;;;;;;;;;;0.29;100.00;99995.56;5112799;28;19924;-70
2021/01/28 00:32:53;;;;;;;;;;;;;;;0.29;100.00;99990.22;5112714;28;20010;-70
2021/01/28 00:35:23;;;;;;;;;;;;;;;0.27;100.00;99992.97;5112416;28;20022;-70
2021/01/28 00:37:49;;;;;;;;;;;;;;;0.30;100.00;99989.31;5112335;28;19923;-70
2021/01/28 00:40:15;;;;;;;;;;;;;;;0.33;100.00;99989.13;5112462;28;20381;-70
2021/01/28 00:42:41;;;;;;;;;;;;;;;0.34;100.00;99993.53;5112127;28;19928;-70
2021/01/28 00:45:07;;;;;;;;;;;;;;;0.38;100.00;99987.09;5111326;28;19924;-70
2021/01/28 00:47:33;;;;;;;;;;;;;;;0.37;100.00;99981.84;5112019;28;19924;-71
2021/01/28 00:50:00;;;;;;;;;;;;;;;0.35;100.00;99979.25;5112733;28;19927;-70
2021/01/28 00:52:26;;;;;;;;;;;;;;;0.31;100.00;99980.34;5112371;28;19931;-70
2021/01/28 00:54:52;;;;;;;;;;;;;;;0.30;100.00;99981.28;5111842;28;19923;-70
2021/01/28 00:57:20;;;;;;;;;;;;;;;0.27;100.00;99974.28;5111846;28;19924;-70
2021/01/28 00:59:46;;;;;;;;;;;;;;;0.26;100.00;99969.03;5111164;28;20359;-70
2021/01/28 01:02:11;;;;;;;;;;;;;;;0.27;100.00;99970.78;5111086;28;20236;-70
2021/01/28 01:04:37;;;;;;;;;;;;;;;0.26;100.00;99972.56;5112245;28;19973;-70
2021/01/28 01:07:04;;;;;;;;;;;;;;;0.27;100.00;99962.75;5111803;28;19924;-70
2021/01/28 01:09:30;;;;;;;;;;;;;;;0.30;100.00;99965.28;5112119;28;19924;-70
2021/01/28 01:11:56;;;;;;;;;;;;;;;0.30;100.00;99957.25;5110930;28;20293;-70
2021/01/28 01:14:22;;;;;;;;;;;;;;;0.28;100.00;99959.13;5111917;28;19923;-70
2021/01/28 01:16:48;;;;;;;;;;;;;;;0.28;100.00;99961.78;5112042;28;19927;-70
2021/01/28 01:19:22;;;;;;;;;;;;;;;0.27;100.00;99954.75;5112236;28;20408;-71
2021/01/28 01:22:02;;;;;;;;;;;;;;;0.27;100.00;99944.06;5110697;28;20389;-70
2021/01/28 01:24:30;;;;;;;;;;;;;;;0.26;100.00;99937.84;5110855;28;19985;-70
2021/01/28 01:26:56;;;;;;;;;;;;;;;0.26;100.00;99940.53;5110862;28;19946;-70
2021/01/28 01:29:22;;;;;;;;;;;;;;;0.24;100.00;99930.88;5110793;28;20381;-71
2021/01/28 01:32:06;;;;;;;;;;;;;;;0.22;100.00;99930.09;5093645;28;20371;-70
2021/01/28 01:34:40;;;;;;;;;;;;;;;0.21;100.00;99928.34;5110826;28;19928;-71
2021/01/28 01:37:07;;;;;;;;;;;;;;;0.21;100.00;99928.34;5111625;28;20027;-71
2021/01/28 01:39:36;;;;;;;;;;;;;;;0.23;100.00;99915.78;5110480;28;20377;-71
2021/01/28 01:42:04;;;;;;;;;;;;;;;0.25;100.00;99908.56;5111909;28;19930;-70
2021/01/28 01:44:29;;;;;;;;;;;;;;;0.24;100.00;99902.38;5111987;28;19976;-70
2021/01/28 01:47:22;;;;;;;;;;;;;;;0.25;100.00;99904.09;5111716;28;20375;-70
2021/01/28 01:49:49;;;;;;;;;;;;;;;0.29;100.00;99904.78;5110656;28;20365;-70
2021/01/28 01:52:15;;;;;;;;;;;;;;;0.33;100.00;99901.03;5111847;28;20278;-70
2021/01/28 01:54:46;;;;;;;;;;;;;;;0.35;100.00;99899.16;5110656;28;19951;-71
2021/01/28 01:57:16;;;;;;;;;;;;;;;0.36;100.00;99898.22;5110289;28;19928;-70
2021/01/28 01:59:54;;;;;;;;;;;;;;;0.37;100.00;99901.75;5110534;28;19927;-70
2021/01/28 02:02:40;;;;;;;;;;;;;;;0.39;100.00;99897.16;5111594;28;20064;-70
2021/01/28 02:05:28;;;;;;;;;;;;;;;0.41;100.00;99904.16;5079890;28;19923;-69
2021/01/28 02:08:13;;;;;;;;;;;;;;;0.44;100.00;99897.78;5115369;28;19935;-69
2021/01/28 02:10:59;;;;;;;;;;;;;;;0.44;100.00;99893.34;5115133;28;20429;-69
2021/01/28 02:13:37;;;;;;;;;;;;;;;0.45;100.00;99892.38;5114072;28;20426;-70
2021/01/28 02:16:16;;;;;;;;;;;;;;;0.47;100.00;99897.66;5113859;28;19973;-69
2021/01/28 02:18:48;;;;;;;;;;;;;;;0.49;100.00;99896.63;5115165;28;19970;-69
2021/01/28 02:21:30;;;;;;;;;;;;;;;0.50;100.00;99890.31;5114033;28;19924;-71
2021/01/28 02:24:16;;;;;;;;;;;;;;;0.55;100.00;99884.75;5114010;28;19923;-71
2021/01/28 02:26:46;;;;;;;;;;;;;;;0.58;100.00;99884.56;5113462;28;19959;-69
2021/01/28 02:29:41;;;;;;;;;;;;;;;0.62;100.00;99875.44;5115004;28;19928;-71
2021/01/28 02:32:07;;;;;;;;;;;;;;;0.68;100.00;99870.72;5113761;28;20453;-71
2021/01/28 02:34:36;;;;;;;;;;;;;;;0.66;100.00;99866.31;5113480;28;19924;-71
2021/01/28 02:37:11;;;;;;;;;;;;;;;0.69;100.00;99865.31;5113066;28;20460;-71
2021/01/28 02:40:04;;;;;;;;;;;;;;;0.71;100.00;99867.88;5098306;28;20381;-71
2021/01/28 02:42:56;;;;;;;;;;;;;;;0.74;100.00;99846.38;5114681;28;20030;-69
2021/01/28 02:45:39;;;;;;;;;;;;;;;0.77;100.00;99852.38;5113231;28;19931;-69
2021/01/28 02:48:11;;;;;;;;;;;;;;;0.79;100.00;99852.31;5113260;28;20277;-70
2021/01/28 02:50:58;;;;;;;;;;;;;;;0.82;100.00;99850.31;5113408;28;20399;-71
2021/01/28 02:53:26;;;;;;;;;;;;;;;0.87;100.00;99855.44;5113407;28;19924;-71
2021/01/28 02:55:56;;;;;;;;;;;;;;;0.94;100.00;99850.63;5113098;28;19955;-70
2021/01/28 02:58:24;;;;;;;;;;;;;;;0.95;100.00;99849.66;5113065;28;19924;-70
2021/01/28 03:01:04;;;;;;;;;;;;;;;0.95;100.00;99841.63;5113232;28;19927;-71
2021/01/28 03:03:30;;;;;;;;;;;;;;;0.97;100.00;99842.41;5113113;28;20389;-71
2021/01/28 03:05:57;;;;;;;;;;;;;;;1.00;100.00;99844.91;5112863;28;19924;-71
2021/01/28 03:08:25;;;;;;;;;;;;;;;1.03;100.00;99842.09;5112946;28;19923;-71
2021/01/28 03:11:11;;;;;;;;;;;;;;;1.07;100.00;99838.28;5112555;28;20349;-71
2021/01/28 03:13:37;;;;;;;;;;;;;;;1.11;100.00;99845.19;5112918;28;20014;-71
2021/01/28 03:16:16;;;;;;;;;;;;;;;1.12;100.00;99835.34;5113336;28;19927;-71
2021/01/28 03:18:48;;;;;;;;;;;;;;;1.15;100.00;99827.19;5112598;28;19928;-71
2021/01/28 03:21:14;;;;;;;;;;;;;;;1.18;100.00;99824.31;5113999;28;19931;-71
2021/01/28 03:23:59;;;;;;;;;;;;;;;1.21;100.00;99817.94;5112864;28;19976;-71
2021/01/28 03:26:40;;;;;;;;;;;;;;;1.23;100.00;99822.25;5112492;28;19935;-71
2021/01/28 03:29:08;;;;;;;;;;;;;;;1.24;100.00;99818.59;5114032;28;19955;-71
2021/01/28 03:31:34;;;;;;;;;;;;;;;1.27;100.00;99825.59;5112451;28;20018;-70
2021/01/28 03:34:01;;;;;;;;;;;;;;;1.30;100.00;99834.31;5113311;28;19928;-71
2021/01/28 03:36:28;;;;;;;;;;;;;;;1.32;100.00;99820.84;5112380;28;19927;-72
2021/01/28 03:38:58;;;;;;;;;;;;;;;1.33;100.00;99814.56;5112424;28;19977;-71
2021/01/28 03:41:24;;;;;;;;;;;;;;;1.36;100.00;99802.81;5112290;28;19992;-71
2021/01/28 03:43:50;;;;;;;;;;;;;;;1.39;100.00;99797.28;5105962;28;20373;-71
2021/01/28 03:46:21;;;;;;;;;;;;;;;1.40;100.00;99799.03;5112044;28;20300;-70
2021/01/28 03:48:51;;;;;;;;;;;;;;;1.44;100.00;99798.78;5112329;28;20385;-69
2021/01/28 03:51:28;;;;;;;;;;;;;;;1.45;100.00;99808.50;5112179;28;19924;-70
2021/01/28 03:54:14;;;;;;;;;;;;;;;1.46;100.00;99798.69;5113437;28;20361;-70
2021/01/28 03:57:06;;;;;;;;;;;;;;;1.48;100.00;99784.25;5109934;28;19923;-70
2021/01/28 03:59:37;;;;;;;;;;;;;;;1.50;100.00;99787.69;5112029;28;19928;-70
2021/01/28 04:02:20;;;;;;;;;;;;;;;1.52;100.00;99784.91;5113181;28;19981;-70
2021/01/28 04:05:05;;;;;;;;;;;;;;;1.54;100.00;99780.34;5113228;28;19947;-70
2021/01/28 04:07:50;;;;;;;;;;;;;;;1.56;100.00;99774.91;5112893;28;19972;-70
2021/01/28 04:10:22;;;;;;;;;;;;;;;1.58;100.00;99773.03;5111694;28;19923;-70
2021/01/28 04:12:48;;;;;;;;;;;;;;;1.57;100.00;99776.66;5112851;28;19923;-70
2021/01/28 04:15:25;;;;;;;;;;;;;;;1.59;100.00;99767.56;5111711;28;19924;-70
2021/01/28 04:17:53;;;;;;;;;;;;;;;1.61;100.00;99762.13;5111467;28;19931;-70
2021/01/28 04:20:28;;;;;;;;;;;;;;;1.63;100.00;99760.22;5111552;28;19934;-70
2021/01/28 04:22:58;;;;;;;;;;;;;;;1.64;100.00;99757.47;5111618;28;19993;-70
2021/01/28 04:25:28;;;;;;;;;;;;;;;1.66;100.00;99760.91;5111461;28;19924;-70
2021/01/28 04:27:55;;;;;;;;;;;;;;;1.69;100.00;99765.22;5112317;28;19924;-71
2021/01/28 04:30:41;;;;;;;;;;;;;;;1.71;100.00;99760.63;5112229;28;20408;-70
2021/01/28 04:33:09;;;;;;;;;;;;;;;1.71;100.00;99749.94;5111580;28;19924;-70
2021/01/28 04:35:40;;;;;;;;;;;;;;;1.72;100.00;99748.97;5112561;28;20053;-70
2021/01/28 04:38:08;;;;;;;;;;;;;;;1.75;100.00;99753.25;5111478;28;19924;-70
2021/01/28 04:40:40;;;;;;;;;;;;;;;1.77;100.00;99749.53;5111320;28;19970;-70
2021/01/28 04:43:15;;;;;;;;;;;;;;;1.78;100.00;99747.75;5111355;28;19930;-70
2021/01/28 04:45:48;;;;;;;;;;;;;;;1.78;100.00;99745.06;5111110;28;20010;-70
2021/01/28 04:48:16;;;;;;;;;;;;;;;1.79;100.00;99754.81;5094191;28;19924;-70
2021/01/28 04:51:10;;;;;;;;;;;;;;;1.77;100.00;99741.53;5111116;28;20397;-70
2021/01/28 04:53:47;;;;;;;;;;;;;;;1.79;100.00;99733.41;5111333;28;19935;-70
2021/01/28 04:56:25;;;;;;;;;;;;;;;1.81;100.00;99737.69;5110942;28;19960;-69
2021/01/28 04:59:14;;;;;;;;;;;;;;;1.84;100.00;99734.84;5112269;28;20340;-69
2021/01/28 05:01:40;;;;;;;;;;;;;;;1.87;100.00;99727.56;5110682;28;19945;-69
2021/01/28 05:04:34;;;;;;;;;;;;;;;1.88;100.00;99730.16;5112230;28;19924;-68
2021/01/28 05:07:10;;;;;;;;;;;;;;;1.89;100.00;99728.38;5107793;28;20021;-69
2021/01/28 05:10:02;;;;;;;;;;;;;;;1.91;100.00;99734.47;5107626;28;20348;-69
2021/01/28 05:13:06;;;;;;;;;;;;;;;1.93;100.00;99741.44;5112028;28;19924;-69
2021/01/28 05:16:18;;;;;;;;;;;;;;;1.93;100.00;99741.44;5092024;28;19927;-69
2021/01/28 05:19:05;;;;;;;;;;;;;;;1.97;100.00;99734.09;5100513;28;20018;-69
2021/01/28 05:22:03;;;;;;;;;;;;;;;2.00;100.00;99729.44;5112148;28;20348;-69
2021/01/28 05:24:37;;;;;;;;;;;;;;;2.00;100.00;99728.56;5096349;28;20044;-69
2021/01/28 05:27:09;;;;;;;;;;;;;;;2.00;100.00;99724.06;5098773;28;20020;-69
2021/01/28 05:29:38;;;;;;;;;;;;;;;2.02;100.00;99723.97;5112072;28;19931;-69
2021/01/28 05:32:13;;;;;;;;;;;;;;;2.02;100.00;99715.94;5099410;28;19924;-69
2021/01/28 05:35:22;;;;;;;;;;;;;;;2.04;100.00;99722.03;5091442;28;19924;-69
2021/01/28 05:38:07;;;;;;;;;;;;;;;2.06;100.00;99725.50;5100230;28;19931;-69
2021/01/28 05:40:54;;;;;;;;;;;;;;;2.07;100.00;99726.34;5104961;28;20367;-69
2021/01/28 05:43:23;;;;;;;;;;;;;;;2.09;100.00;99719.94;5094529;28;19928;-69
2021/01/28 05:45:52;;;;;;;;;;;;;;;2.10;100.00;99718.13;5106532;28;19923;-69
2021/01/28 05:48:42;;;;;;;;;;;;;;;2.10;100.00;99721.69;5114627;28;19946;-69
2021/01/28 05:51:39;;;;;;;;;;;;;;;2.10;100.00;99721.69;5091312;28;19950;-69
2021/01/28 05:54:06;;;;;;;;;;;;;;;2.12;100.00;99729.63;5114375;28;20015;-69
2021/01/28 05:56:48;;;;;;;;;;;;;;;2.11;100.00;99727.88;5109575;28;19924;-68
2021/01/28 05:59:22;;;;;;;;;;;;;;;2.12;100.00;99721.59;5111593;28;20728;-69
2021/01/28 06:01:58;;;;;;;;;;;;;;;2.16;100.00;99720.44;5115447;28;20014;-69
2021/01/28 06:04:56;;;;;;;;;;;;;;;2.13;100.00;99718.81;5111042;28;19931;-69
2021/01/28 06:07:42;;;;;;;;;;;;;;;2.15;100.00;99714.22;5093227;28;19943;-69
2021/01/28 06:10:39;;;;;;;;;;;;;;;2.16;100.00;99707.94;5103468;28;19931;-68
2021/01/28 06:13:51;;;;;;;;;;;;;;;2.18;100.00;99707.81;5072649;28;19924;-69
2021/01/28 06:16:37;;;;;;;;;;;;;;;2.18;100.00;99708.66;5094057;28;19948;-69
2021/01/28 06:19:21;;;;;;;;;;;;;;;2.19;100.00;99717.56;5098820;28;19925;-69
2021/01/28 06:21:57;;;;;;;;;;;;;;;2.20;100.00;99715.75;5099411;28;20411;-68
2021/01/28 06:25:04;;;;;;;;;;;;;;;2.21;100.00;99717.47;5088764;28;20161;-67
2021/01/28 06:27:47;;;;;;;;;;;;;;;2.24;100.00;99728.00;5080659;28;20401;-67
2021/01/28 06:30:16;;;;;;;;;;;;;;;2.26;100.00;99732.31;5112580;28;19923;-66
2021/01/28 06:33:02;;;;;;;;;;;;;;;2.29;100.00;99733.94;5113360;28;19924;-67
2021/01/28 06:35:53;;;;;;;;;;;;;;;2.26;100.00;99734.97;5103447;28;19932;-67
2021/01/28 06:38:44;;;;;;;;;;;;;;;2.24;100.00;99733.34;5094031;28;19990;-67
2021/01/28 06:41:31;;;;;;;;;;;;;;;2.20;100.00;99737.19;5106840;28;19924;-68
2021/01/28 06:44:08;;;;;;;;;;;;;;;2.17;100.00;99735.56;5097447;28;19930;-67
2021/01/28 06:46:50;;;;;;;;;;;;;;;2.14;100.00;99727.72;5109798;28;19930;-66
2021/01/28 06:49:56;;;;;;;;;;;;;;;2.10;100.00;99734.19;5075971;28;19928;-67
2021/01/28 06:52:30;;;;;;;;;;;;;;;2.07;100.00;99734.38;5112352;28;20006;-68
2021/01/28 06:54:59;;;;;;;;;;;;;;;1.98;100.00;99733.16;5104192;28;20477;-67
2021/01/28 06:58:00;;;;;;;;;;;;;;;1.92;100.00;99738.88;5105533;28;19989;-68
2021/01/28 07:00:38;;;;;;;;;;;;;;;1.86;100.00;99740.13;5112975;28;19928;-67
2021/01/28 07:03:11;;;;;;;;;;;;;;;1.87;100.00;99743.63;5112107;28;19930;-66
2021/01/28 07:05:43;;;;;;;;;;;;;;;1.87;100.00;99744.53;5095623;28;19947;-67
2021/01/28 07:08:14;;;;;;;;;;;;;;;1.86;100.00;99740.13;5096574;28;20046;-66
2021/01/28 07:11:12;;;;;;;;;;;;;;;1.77;100.00;99746.03;5094293;28;19939;-66
2021/01/28 07:14:12;;;;;;;;;;;;;;;1.72;100.00;99743.59;5093754;28;19958;-67
2021/01/28 07:16:52;;;;;;;;;;;;;;;1.66;100.00;99744.00;5111554;28;20019;-68
2021/01/28 07:19:20;;;;;;;;;;;;;;;1.62;100.00;99737.09;5113913;28;20391;-68
2021/01/28 07:21:48;;;;;;;;;;;;;;;1.63;100.00;99741.47;5107790;28;19928;-67
2021/01/28 07:24:28;;;;;;;;;;;;;;;1.56;100.00;99740.13;5091934;28;19962;-67
2021/01/28 07:26:55;;;;;;;;;;;;;;;1.52;100.00;99736.78;5093462;28;20000;-67
2021/01/28 07:29:39;;;;;;;;;;;;;;;1.48;100.00;99730.75;5094920;28;20467;-67
2021/01/28 07:32:06;;;;;;;;;;;;;;;1.53;100.00;99732.31;5093571;28;19925;-67
2021/01/28 07:35:04;;;;;;;;;;;;;;;1.59;100.00;99739.94;5091592;28;20010;-67
2021/01/28 07:37:30;;;;;;;;;;;;;;;1.56;100.00;99732.97;5093464;28;19924;-67
2021/01/28 07:40:31;;;;;;;;;;;;;;;1.59;100.00;99734.59;5100488;28;19957;-67
2021/01/28 07:43:25;;;;;;;;;;;;;;;1.58;100.00;99724.88;5106873;28;19924;-67
2021/01/28 07:46:12;;;;;;;;;;;;;;;1.61;100.00;99725.53;5101209;28;19927;-67
2021/01/28 07:49:09;;;;;;;;;;;;;;;1.61;100.00;99716.66;5106808;28;20069;-68
2021/01/28 07:52:10;;;;;;;;;;;;;;;1.60;100.00;99721.13;5102925;28;19924;-67
2021/01/28 07:54:37;;;;;;;;;;;;;;;1.57;100.00;99712.44;5091874;28;20024;-68
2021/01/28 07:57:05;;;;;;;;;;;;;;;1.55;100.00;99725.91;5101421;28;19924;-67
2021/01/28 07:59:34;;;;;;;;;;;;;;;1.58;100.00;99735.56;5102403;28;19931;-67
2021/01/28 08:02:11;;;;;;;;;;;;;;;1.61;100.00;99738.06;5102529;28;19932;-67
2021/01/28 08:04:43;;;;;;;;;;;;;;;1.58;100.00;99735.56;5101705;28;19971;-67
2021/01/28 08:07:10;;;;;;;;;;;;;;;1.58;100.00;99731.06;5102547;28;20582;-67
2021/01/28 08:09:44;;;;;;;;;;;;;;;1.57;100.00;99731.16;5100012;28;20455;-67
2021/01/28 08:12:10;;;;;;;;;;;;;;;1.54;100.00;99717.94;5101517;28;19978;-67
2021/01/28 08:14:36;;;;;;;;;;;;;;;1.59;100.00;99722.09;5102840;28;20420;-68
2021/01/28 08:17:02;;;;;;;;;;;;;;;1.54;100.00;99716.16;5101258;28;19932;-68
2021/01/28 08:19:28;;;;;;;;;;;;;;;1.60;100.00;99712.25;5101843;28;19924;-69
2021/01/28 08:22:03;;;;;;;;;;;;;;;1.66;100.00;99706.53;5098178;28;19924;-70
2021/01/28 08:24:35;;;;;;;;;;;;;;;1.68;100.00;99712.63;5103098;28;19924;-69
2021/01/28 08:27:09;;;;;;;;;;;;;;;1.63;100.00;99718.28;5101777;28;20178;-69
2021/01/28 08:29:35;;;;;;;;;;;;;;;1.72;100.00;99716.84;5106052;28;19923;-69
2021/01/28 08:32:01;;;;;;;;;;;;;;;1.86;100.00;99717.81;5109524;28;19938;-70
2021/01/28 08:34:29;;;;;;;;;;;;;;;1.94;100.00;99721.75;5110682;28;19968;-70
2021/01/28 08:36:56;;;;;;;;;;;;;;;2.14;100.00;99712.50;5108322;28;20378;-69
2021/01/28 08:39:24;;;;;;;;;;;;;;;2.17;100.00;99714.97;5111887;28;19967;-69
2021/01/28 08:41:59;;;;;;;;;;;;;;;2.17;100.00;99709.63;5112250;28;20401;-70
2021/01/28 08:44:26;;;;;;;;;;;;;;;2.15;100.00;99708.88;5111611;28;22605;-69
2021/01/28 08:47:03;;;;;;;;;;;;;;;2.31;100.00;99716.81;5112183;28;19927;-69
2021/01/28 08:49:29;;;;;;;;;;;;;;;2.35;100.00;99706.72;5112019;28;19930;-70
2021/01/28 08:52:00;;;;;;;;;;;;;;;2.24;100.00;99710.09;5112496;28;20342;-70
2021/01/28 08:54:29;;;;;;;;;;;;;;;2.07;100.00;99710.28;5112475;28;20539;-70
2021/01/28 08:56:57;;;;;;;;;;;;;;;2.15;100.00;99710.66;5112147;28;20027;-70
2021/01/28 08:59:25;;;;;;;;;;;;;;;2.03;100.00;99709.59;5108804;28;19935;-69
2021/01/28 09:01:53;;;;;;;;;;;;;;;2.03;100.00;99708.75;5091857;28;19924;-69
2021/01/28 09:04:24;;;;;;;;;;;;;;;1.82;100.00;99720.69;5098149;28;20010;-68
2021/01/28 09:06:50;;;;;;;;;;;;;;;1.85;100.00;99722.31;5111904;28;19924;-68
2021/01/28 09:09:18;;;;;;;;;;;;;;;1.93;100.00;99728.06;5099365;28;19963;-67
2021/01/28 09:11:47;;;;;;;;;;;;;;;1.77;100.00;99713.91;5098742;28;20014;-68
2021/01/28 09:14:15;;;;;;;;;;;;;;;1.63;100.00;99715.59;5091960;28;19924;-67
2021/01/28 09:16:50;;;;;;;;;;;;;;;1.60;100.00;99720.28;5111589;28;20388;-67
2021/01/28 09:19:16;;;;;;;;;;;;;;;1.62;100.00;99718.38;5096234;28;19964;-67
2021/01/28 09:21:43;;;;;;;;;;;;;;;1.77;100.00;99706.72;5095922;28;20046;-68
2021/01/28 09:24:16;;;;;;;;;;;;;;;1.82;100.00;99701.97;5095423;28;20369;-68
2021/01/28 09:26:43;;;;;;;;;;;;;;;1.74;100.00;99693.53;5112420;28;19977;-68
2021/01/28 09:29:10;;;;;;;;;;;;;;;1.76;100.00;99706.81;5115264;28;19928;-68
2021/01/28 09:31:36;;;;;;;;;;;;;;;1.81;100.00;99700.22;5115573;28;20011;-68
2021/01/28 09:34:13;;;;;;;;;;;;;;;1.76;100.00;99702.31;5114762;28;20038;-67
2021/01/28 09:36:39;;;;;;;;;;;;;;;1.69;100.00;99689.44;5115366;28;20304;-67
2021/01/28 09:39:07;;;;;;;;;;;;;;;1.77;100.00;99688.00;5109225;28;20002;-67
2021/01/28 09:41:36;;;;;;;;;;;;;;;1.75;100.00;99695.28;5110409;28;19924;-67
2021/01/28 09:44:01;;;;;;;;;;;;;;;1.76;100.00;99690.78;5094057;28;19971;-67
2021/01/28 09:46:30;;;;;;;;;;;;;;;1.80;100.00;99687.84;5092329;28;20297;-67
2021/01/28 09:48:58;;;;;;;;;;;;;;;1.94;100.00;99691.47;5095003;28;19928;-67
2021/01/28 09:51:26;;;;;;;;;;;;;;;1.95;100.00;99687.81;5094146;28;19931;-67
2021/01/28 09:53:59;;;;;;;;;;;;;;;1.97;100.00;99676.06;5094957;28;19932;-67
2021/01/28 09:56:25;;;;;;;;;;;;;;;2.09;100.00;99676.25;5103838;28;19963;-68
2021/01/28 09:58:51;;;;;;;;;;;;;;;2.03;100.00;99671.28;5094218;28;19935;-68
2021/01/28 10:01:17;;;;;;;;;;;;;;;1.97;100.00;99672.53;5095174;28;20346;-67
2021/01/28 10:03:43;;;;;;;;;;;;;;;2.01;100.00;99668.72;5106644;28;19927;-67
2021/01/28 10:06:09;;;;;;;;;;;;;;;2.12;100.00;99671.56;5114127;28;19923;-67
2021/01/28 10:08:35;;;;;;;;;;;;;;;2.23;100.00;99676.25;5113590;28;20279;-67
2021/01/28 10:11:01;;;;;;;;;;;;;;;2.40;100.00;99674.31;5114860;28;19924;-66
2021/01/28 10:13:26;;;;;;;;;;;;;;;2.46;100.00;99674.78;5110003;28;19968;-67
2021/01/28 10:15:52;;;;;;;;;;;;;;;2.58;100.00;99670.47;5099464;28;20421;-66
2021/01/28 10:18:18;;;;;;;;;;;;;;;2.71;100.00;99664.28;5102434;28;19924;-67
2021/01/28 10:20:45;;;;;;;;;;;;;;;2.78;100.00;99653.06;5113142;28;19927;-67
2021/01/28 10:23:11;;;;;;;;;;;;;;;2.90;100.00;99655.88;5107409;28;19935;-67
2021/01/28 10:25:36;;;;;;;;;;;;;;;2.93;100.00;99656.56;5092964;28;19928;-67
2021/01/28 10:28:02;;;;;;;;;;;;;;;2.97;100.00;99647.34;5097855;28;20447;-67
2021/01/28 10:30:28;;;;;;;;;;;;;;;2.96;100.00;99642.09;5114043;28;19924;-67
2021/01/28 10:32:55;;;;;;;;;;;;;;;2.72;100.00;99631.19;5109800;28;19959;-67
2021/01/28 10:35:23;;;;;;;;;;;;;;;2.65;100.00;99631.56;5112571;28;19924;-67
2021/01/28 10:37:49;;;;;;;;;;;;;;;2.67;100.00;99637.69;5108997;28;20307;-67
2021/01/28 10:40:16;;;;;;;;;;;;;;;2.67;100.00;99626.09;5093855;28;19924;-67
2021/01/28 10:42:43;;;;;;;;;;;;;;;2.56;100.00;99640.22;5095489;28;19924;-67
2021/01/28 10:45:10;;;;;;;;;;;;;;;2.58;100.00;99634.75;5106301;28;19997;-67
2021/01/28 10:47:36;;;;;;;;;;;;;;;2.38;100.00;99628.88;5112194;28;20444;-66
2021/01/28 10:50:02;;;;;;;;;;;;;;;2.43;100.00;99621.41;5106844;28;19955;-66
2021/01/28 10:52:28;;;;;;;;;;;;;;;2.44;100.00;99620.44;5107750;28;19931;-67
2021/01/28 10:54:55;;;;;;;;;;;;;;;2.64;100.00;99627.16;5093257;28;19928;-66
2021/01/28 10:57:20;;;;;;;;;;;;;;;2.90;100.00;99632.63;5097538;28;20440;-67
2021/01/28 10:59:46;;;;;;;;;;;;;;;2.98;100.00;99637.47;5113674;28;19927;-67
2021/01/28 11:02:12;;;;;;;;;;;;;;;3.11;100.00;99624.94;5110404;28;19928;-67
2021/01/28 11:04:38;;;;;;;;;;;;;;;3.01;100.00;99614.00;5098233;28;19934;-67
2021/01/28 11:07:03;;;;;;;;;;;;;;;2.96;100.00;99607.22;5111908;28;20095;-67
2021/01/28 11:09:29;;;;;;;;;;;;;;;3.08;100.00;99597.50;5093644;28;19924;-67
2021/01/28 11:11:56;;;;;;;;;;;;;;;3.05;100.00;99613.78;5112548;28;19924;-66
2021/01/28 11:14:22;;;;;;;;;;;;;;;2.87;100.00;99597.97;5113259;28;19972;-68
2021/01/28 11:16:48;;;;;;;;;;;;;;;2.80;100.00;99586.81;5112236;28;20297;-68
2021/01/28 11:19:14;;;;;;;;;;;;;;;2.78;100.00;99587.88;5094746;28;19924;-68
2021/01/28 11:21:40;;;;;;;;;;;;;;;2.89;100.00;99596.06;5108936;28;20531;-67
2021/01/28 11:24:06;;;;;;;;;;;;;;;2.92;100.00;99587.81;5111743;28;19924;-67
2021/01/28 11:26:32;;;;;;;;;;;;;;;2.88;100.00;99577.41;5108599;28;19995;-68
2021/01/28 11:28:58;;;;;;;;;;;;;;;2.99;100.00;99580.22;5111576;28;19928;-68
2021/01/28 11:31:24;;;;;;;;;;;;;;;3.08;100.00;99579.59;5102869;28;20018;-68
2021/01/28 11:33:50;;;;;;;;;;;;;;;3.22;100.00;99572.41;5112846;28;19935;-68
2021/01/28 11:36:16;;;;;;;;;;;;;;;3.27;100.00;99575.63;5110725;28;19924;-68
2021/01/28 11:38:42;;;;;;;;;;;;;;;3.44;100.00;99569.94;5112414;28;20464;-70
2021/01/28 11:41:08;;;;;;;;;;;;;;;3.44;100.00;99574.47;5099764;28;19959;-68
2021/01/28 11:43:34;;;;;;;;;;;;;;;3.46;100.00;99562.66;5112502;28;19931;-69
2021/01/28 11:46:00;;;;;;;;;;;;;;;3.36;100.00;99553.53;5111417;28;20026;-68
2021/01/28 11:48:26;;;;;;;;;;;;;;;3.30;100.00;99541.41;5109416;28;19958;-68
2021/01/28 11:50:52;;;;;;;;;;;;;;;3.22;100.00;99546.47;5103799;28;19928;-69
2021/01/28 11:53:18;;;;;;;;;;;;;;;3.02;100.00;99545.16;5090661;28;20404;-69
2021/01/28 11:55:56;;;;;;;;;;;;;;;2.97;100.00;99550.81;5097693;28;19924;-69
2021/01/28 11:58:22;;;;;;;;;;;;;;;2.88;100.00;99556.81;5094117;28;20286;-69
2021/01/28 12:00:48;;;;;;;;;;;;;;;2.83;100.00;99549.09;5103811;28;20396;-69
2021/01/28 12:03:15;;;;;;;;;;;;;;;2.77;100.00;99560.22;5111622;28;19924;-67
2021/01/28 12:05:41;;;;;;;;;;;;;;;2.80;100.00;99551.13;5112127;28;19959;-68
2021/01/28 12:08:06;;;;;;;;;;;;;;;2.90;100.00;99554.03;5095087;28;19924;-68
2021/01/28 12:10:32;;;;;;;;;;;;;;;2.87;100.00;99560.44;5091881;28;19936;-68
2021/01/28 12:12:59;;;;;;;;;;;;;;;2.90;100.00;99554.03;5107391;28;19977;-68
2021/01/28 12:15:25;;;;;;;;;;;;;;;2.70;100.00;99553.56;5110568;28;19924;-68
2021/01/28 12:17:51;;;;;;;;;;;;;;;2.74;100.00;99547.03;5111288;28;19935;-68
2021/01/28 12:20:19;;;;;;;;;;;;;;;2.60;100.00;99558.66;5102861;28;19924;-68
2021/01/28 12:22:45;;;;;;;;;;;;;;;2.54;100.00;99556.41;5111686;28;19979;-68
2021/01/28 12:25:11;;;;;;;;;;;;;;;2.57;100.00;99547.31;5097623;28;19931;-67
2021/01/28 12:27:37;;;;;;;;;;;;;;;2.70;100.00;99542.84;5111730;28;20000;-67
2021/01/28 12:30:09;;;;;;;;;;;;;;;2.70;100.00;99529.44;5095133;28;20385;-69
2021/01/28 12:32:35;;;;;;;;;;;;;;;2.71;100.00;99539.19;5111212;28;19950;-68
2021/01/28 12:35:01;;;;;;;;;;;;;;;2.89;100.00;99536.25;5111390;28;20342;-68
2021/01/28 12:37:27;;;;;;;;;;;;;;;3.06;100.00;99527.00;5111357;28;20022;-68
2021/01/28 12:39:53;;;;;;;;;;;;;;;2.88;100.00;99523.78;5110764;28;20034;-68
2021/01/28 12:42:19;;;;;;;;;;;;;;;2.93;100.00;99525.19;5111623;28;20366;-68
2021/01/28 12:44:45;;;;;;;;;;;;;;;3.07;100.00;99524.22;5097320;28;19928;-67
2021/01/28 12:47:10;;;;;;;;;;;;;;;3.22;100.00;99524.13;5091161;28;19928;-67
2021/01/28 12:49:36;;;;;;;;;;;;;;;2.97;100.00;99518.66;5098642;28;19928;-67
2021/01/28 12:52:02;;;;;;;;;;;;;;;2.92;100.00;99506.53;5105536;28;19935;-68
2021/01/28 12:54:29;;;;;;;;;;;;;;;2.88;100.00;99507.72;5111727;28;20414;-68
2021/01/28 12:56:54;;;;;;;;;;;;;;;2.83;100.00;99500.84;5106937;28;20038;-68
2021/01/28 12:59:20;;;;;;;;;;;;;;;2.83;100.00;99511.56;5111406;28;19943;-67
2021/01/28 13:01:46;;;;;;;;;;;;;;;2.65;100.00;99499.41;5095339;28;20428;-67
2021/01/28 13:04:12;;;;;;;;;;;;;;;2.54;100.00;99499.28;5073864;28;19928;-67
2021/01/28 13:06:38;;;;;;;;;;;;;;;2.40;100.00;99503.72;5105010;28;19935;-70
2021/01/28 13:09:03;;;;;;;;;;;;;;;2.32;100.00;99496.19;5111709;28;19923;-68
2021/01/28 13:11:31;;;;;;;;;;;;;;;2.26;100.00;99493.06;5097740;28;19975;-67
2021/01/28 13:13:57;;;;;;;;;;;;;;;2.19;100.00;99495.31;5090076;28;20015;-69